sensor_id;sensor_type;location;lat;lon;timestamp;P1;durP1;ratioP1;P2;durP2;ratioP2
11548;SDS011;61444;59.472;18.306;2022-12-28T00:01:10;0.60;;;0.33;;
11548;SDS011;61444;59.472;18.306;2022-12-28T00:03:20;0.80;;;0.30;;
11548;SDS011;61444;59.472;18.306;2022-12-28T00:05:29;0.60;;;0.20;;
11548;SDS011;61444;59.472;18.306;2022-12-28T00:07:38;0.63;;;0.40;;
11548;SDS011;61444;59.472;18.306;2022-12-28T00:09:48;0.50;;;0.20;;
11548;SDS011;61444;59.472;18.306;2022-12-28T00:11:56;0.90;;;0.53;;
11548;SDS011;61444;59.472;18.306;2022-12-28T00:14:06;0.60;;;0.23;;
11548;SDS011;61444;59.472;18.306;2022-12-28T00:16:17;0.60;;;0.40;;
11548;SDS011;61444;59.472;18.306;2022-12-28T00:18:31;0.80;;;0.40;;
11548;SDS011;61444;59.472;18.306;2022-12-28T00:20:40;0.70;;;0.40;;
11548;SDS011;61444;59.472;18.306;2022-12-28T00:22:49;1.90;;;0.50;;
11548;SDS011;61444;59.472;18.306;2022-12-28T00:24:59;1.23;;;0.40;;
11548;SDS011;61444;59.472;18.306;2022-12-28T00:27:08;0.60;;;0.40;;
11548;SDS011;61444;59.472;18.306;2022-12-28T00:29:17;2.23;;;0.40;;
11548;SDS011;61444;59.472;18.306;2022-12-28T00:31:25;1.63;;;0.40;;
11548;SDS011;61444;59.472;18.306;2022-12-28T00:33:34;1.10;;;0.40;;
11548;SDS011;61444;59.472;18.306;2022-12-28T00:35:43;2.53;;;0.60;;
11548;SDS011;61444;59.472;18.306;2022-12-28T00:37:59;0.53;;;0.43;;
11548;SDS011;61444;59.472;18.306;2022-12-28T00:40:09;2.47;;;0.40;;
11548;SDS011;61444;59.472;18.306;2022-12-28T00:42:27;0.20;;;0.20;;
11548;SDS011;61444;59.472;18.306;2022-12-28T00:44:36;2.90;;;0.40;;
11548;SDS011;61444;59.472;18.306;2022-12-28T00:46:45;0.30;;;0.20;;
11548;SDS011;61444;59.472;18.306;2022-12-28T00:48:53;3.43;;;0.50;;
11548;SDS011;61444;59.472;18.306;2022-12-28T00:51:02;1.80;;;0.37;;
11548;SDS011;61444;59.472;18.306;2022-12-28T00:53:13;1.53;;;0.30;;
11548;SDS011;61444;59.472;18.306;2022-12-28T00:55:24;2.03;;;0.50;;
11548;SDS011;61444;59.472;18.306;2022-12-28T00:57:32;0.30;;;0.20;;
11548;SDS011;61444;59.472;18.306;2022-12-28T00:59:42;0.90;;;0.40;;
11548;SDS011;61444;59.472;18.306;2022-12-28T01:01:51;1.33;;;0.30;;
11548;SDS011;61444;59.472;18.306;2022-12-28T01:04:00;0.53;;;0.40;;
11548;SDS011;61444;59.472;18.306;2022-12-28T01:06:10;3.13;;;0.47;;
11548;SDS011;61444;59.472;18.306;2022-12-28T01:08:20;0.47;;;0.30;;
11548;SDS011;61444;59.472;18.306;2022-12-28T01:10:30;1.07;;;0.30;;
11548;SDS011;61444;59.472;18.306;2022-12-28T01:12:39;2.37;;;0.57;;
11548;SDS011;61444;59.472;18.306;2022-12-28T01:14:48;0.90;;;0.30;;
11548;SDS011;61444;59.472;18.306;2022-12-28T01:16:57;1.30;;;0.60;;
11548;SDS011;61444;59.472;18.306;2022-12-28T01:19:06;0.60;;;0.20;;
11548;SDS011;61444;59.472;18.306;2022-12-28T01:21:16;1.40;;;0.40;;
11548;SDS011;61444;59.472;18.306;2022-12-28T01:23:26;1.20;;;0.40;;
11548;SDS011;61444;59.472;18.306;2022-12-28T01:25:36;1.57;;;0.20;;
11548;SDS011;61444;59.472;18.306;2022-12-28T01:27:45;0.57;;;0.30;;
11548;SDS011;61444;59.472;18.306;2022-12-28T01:29:54;2.87;;;0.30;;
11548;SDS011;61444;59.472;18.306;2022-12-28T01:32:02;1.63;;;0.30;;
11548;SDS011;61444;59.472;18.306;2022-12-28T01:34:11;0.40;;;0.20;;
11548;SDS011;61444;59.472;18.306;2022-12-28T01:36:21;0.30;;;0.20;;
11548;SDS011;61444;59.472;18.306;2022-12-28T01:38:30;1.30;;;0.40;;
11548;SDS011;61444;59.472;18.306;2022-12-28T01:40:42;1.40;;;0.50;;
11548;SDS011;61444;59.472;18.306;2022-12-28T01:42:51;2.33;;;0.40;;
11548;SDS011;61444;59.472;18.306;2022-12-28T01:44:59;1.20;;;0.30;;
11548;SDS011;61444;59.472;18.306;2022-12-28T01:47:24;1.97;;;0.47;;
11548;SDS011;61444;59.472;18.306;2022-12-28T01:49:36;1.03;;;0.40;;
11548;SDS011;61444;59.472;18.306;2022-12-28T01:51:49;0.77;;;0.40;;
11548;SDS011;61444;59.472;18.306;2022-12-28T01:54:01;2.63;;;0.53;;
11548;SDS011;61444;59.472;18.306;2022-12-28T01:56:12;3.20;;;0.40;;
11548;SDS011;61444;59.472;18.306;2022-12-28T01:58:22;1.20;;;0.33;;
11548;SDS011;61444;59.472;18.306;2022-12-28T02:00:35;1.90;;;0.73;;
11548;SDS011;61444;59.472;18.306;2022-12-28T02:02:45;1.03;;;0.37;;
11548;SDS011;61444;59.472;18.306;2022-12-28T02:04:58;0.70;;;0.40;;
11548;SDS011;61444;59.472;18.306;2022-12-28T02:07:08;2.53;;;0.40;;
11548;SDS011;61444;59.472;18.306;2022-12-28T02:09:18;4.33;;;0.70;;
11548;SDS011;61444;59.472;18.306;2022-12-28T02:11:31;0.73;;;0.43;;
11548;SDS011;61444;59.472;18.306;2022-12-28T02:13:41;0.77;;;0.23;;
11548;SDS011;61444;59.472;18.306;2022-12-28T02:15:51;1.97;;;0.40;;
11548;SDS011;61444;59.472;18.306;2022-12-28T02:17:59;0.57;;;0.40;;
11548;SDS011;61444;59.472;18.306;2022-12-28T02:20:09;1.43;;;0.30;;
11548;SDS011;61444;59.472;18.306;2022-12-28T02:27:51;4.90;;;0.40;;
11548;SDS011;61444;59.472;18.306;2022-12-28T02:30:11;1.33;;;0.53;;
11548;SDS011;61444;59.472;18.306;2022-12-28T02:32:25;0.83;;;0.40;;
11548;SDS011;61444;59.472;18.306;2022-12-28T02:34:44;3.93;;;0.50;;
11548;SDS011;61444;59.472;18.306;2022-12-28T02:37:02;4.23;;;0.90;;
11548;SDS011;61444;59.472;18.306;2022-12-28T02:39:18;3.43;;;0.73;;
11548;SDS011;61444;59.472;18.306;2022-12-28T02:41:30;2.70;;;0.30;;
11548;SDS011;61444;59.472;18.306;2022-12-28T02:43:40;4.73;;;0.60;;
11548;SDS011;61444;59.472;18.306;2022-12-28T02:45:51;1.27;;;0.43;;
11548;SDS011;61444;59.472;18.306;2022-12-28T02:48:16;1.63;;;0.50;;
11548;SDS011;61444;59.472;18.306;2022-12-28T02:50:44;0.80;;;0.30;;
11548;SDS011;61444;59.472;18.306;2022-12-28T02:53:09;0.30;;;0.23;;
11548;SDS011;61444;59.472;18.306;2022-12-28T02:55:34;2.73;;;0.47;;
11548;SDS011;61444;59.472;18.306;2022-12-28T02:58:17;2.37;;;0.63;;
11548;SDS011;61444;59.472;18.306;2022-12-28T03:00:45;1.70;;;0.40;;
11548;SDS011;61444;59.472;18.306;2022-12-28T03:03:06;1.20;;;0.50;;
11548;SDS011;61444;59.472;18.306;2022-12-28T03:05:31;2.73;;;0.63;;
11548;SDS011;61444;59.472;18.306;2022-12-28T03:08:01;0.70;;;0.50;;
11548;SDS011;61444;59.472;18.306;2022-12-28T03:10:27;2.40;;;0.23;;
11548;SDS011;61444;59.472;18.306;2022-12-28T03:12:42;3.60;;;0.40;;
11548;SDS011;61444;59.472;18.306;2022-12-28T03:14:56;0.77;;;0.33;;
11548;SDS011;61444;59.472;18.306;2022-12-28T03:17:11;0.97;;;0.40;;
11548;SDS011;61444;59.472;18.306;2022-12-28T03:19:41;1.40;;;0.40;;
11548;SDS011;61444;59.472;18.306;2022-12-28T03:22:10;1.17;;;0.40;;
11548;SDS011;61444;59.472;18.306;2022-12-28T03:24:37;1.00;;;0.50;;
11548;SDS011;61444;59.472;18.306;2022-12-28T03:27:07;1.70;;;0.47;;
11548;SDS011;61444;59.472;18.306;2022-12-28T03:29:36;1.80;;;0.53;;
11548;SDS011;61444;59.472;18.306;2022-12-28T03:32:06;0.63;;;0.30;;
11548;SDS011;61444;59.472;18.306;2022-12-28T03:34:16;1.53;;;0.50;;
11548;SDS011;61444;59.472;18.306;2022-12-28T03:36:27;1.60;;;0.30;;
11548;SDS011;61444;59.472;18.306;2022-12-28T03:38:38;1.13;;;0.50;;
11548;SDS011;61444;59.472;18.306;2022-12-28T03:40:56;0.80;;;0.30;;
11548;SDS011;61444;59.472;18.306;2022-12-28T03:43:13;0.13;;;0.10;;
11548;SDS011;61444;59.472;18.306;2022-12-28T03:45:48;2.20;;;0.40;;
11548;SDS011;61444;59.472;18.306;2022-12-28T03:47:58;1.70;;;0.30;;
11548;SDS011;61444;59.472;18.306;2022-12-28T03:50:11;0.70;;;0.40;;
11548;SDS011;61444;59.472;18.306;2022-12-28T03:52:20;0.80;;;0.30;;
11548;SDS011;61444;59.472;18.306;2022-12-28T03:54:29;0.70;;;0.50;;
11548;SDS011;61444;59.472;18.306;2022-12-28T03:56:38;0.83;;;0.40;;
11548;SDS011;61444;59.472;18.306;2022-12-28T03:58:53;2.20;;;0.57;;
11548;SDS011;61444;59.472;18.306;2022-12-28T04:01:03;0.67;;;0.40;;
11548;SDS011;61444;59.472;18.306;2022-12-28T04:03:12;0.57;;;0.23;;
11548;SDS011;61444;59.472;18.306;2022-12-28T04:05:23;1.00;;;0.33;;
11548;SDS011;61444;59.472;18.306;2022-12-28T04:07:31;1.63;;;0.63;;
11548;SDS011;61444;59.472;18.306;2022-12-28T04:09:40;1.53;;;0.50;;
11548;SDS011;61444;59.472;18.306;2022-12-28T04:11:48;2.10;;;0.60;;
11548;SDS011;61444;59.472;18.306;2022-12-28T04:13:57;0.73;;;0.40;;
11548;SDS011;61444;59.472;18.306;2022-12-28T04:16:13;0.73;;;0.37;;
11548;SDS011;61444;59.472;18.306;2022-12-28T04:18:22;2.27;;;0.60;;
11548;SDS011;61444;59.472;18.306;2022-12-28T04:20:33;1.03;;;0.30;;
11548;SDS011;61444;59.472;18.306;2022-12-28T04:22:41;2.13;;;0.40;;
11548;SDS011;61444;59.472;18.306;2022-12-28T04:24:50;1.73;;;0.30;;
11548;SDS011;61444;59.472;18.306;2022-12-28T04:26:58;2.50;;;0.47;;
11548;SDS011;61444;59.472;18.306;2022-12-28T04:29:07;0.97;;;0.20;;
11548;SDS011;61444;59.472;18.306;2022-12-28T04:31:17;2.83;;;0.47;;
11548;SDS011;61444;59.472;18.306;2022-12-28T04:33:26;1.00;;;0.40;;
11548;SDS011;61444;59.472;18.306;2022-12-28T04:35:37;1.17;;;0.50;;
11548;SDS011;61444;59.472;18.306;2022-12-28T04:37:45;1.23;;;0.43;;
11548;SDS011;61444;59.472;18.306;2022-12-28T04:39:54;2.23;;;0.30;;
11548;SDS011;61444;59.472;18.306;2022-12-28T04:42:03;1.33;;;0.40;;
11548;SDS011;61444;59.472;18.306;2022-12-28T04:44:12;1.30;;;0.30;;
11548;SDS011;61444;59.472;18.306;2022-12-28T04:46:21;0.60;;;0.30;;
11548;SDS011;61444;59.472;18.306;2022-12-28T04:48:30;1.67;;;0.40;;
11548;SDS011;61444;59.472;18.306;2022-12-28T04:50:42;2.60;;;0.50;;
11548;SDS011;61444;59.472;18.306;2022-12-28T04:52:50;3.20;;;0.40;;
11548;SDS011;61444;59.472;18.306;2022-12-28T04:54:59;0.23;;;0.20;;
11548;SDS011;61444;59.472;18.306;2022-12-28T04:57:07;0.63;;;0.37;;
11548;SDS011;61444;59.472;18.306;2022-12-28T04:59:16;0.60;;;0.40;;
11548;SDS011;61444;59.472;18.306;2022-12-28T05:01:25;2.20;;;0.40;;
11548;SDS011;61444;59.472;18.306;2022-12-28T05:03:34;0.50;;;0.30;;
11548;SDS011;61444;59.472;18.306;2022-12-28T05:05:45;1.90;;;0.40;;
11548;SDS011;61444;59.472;18.306;2022-12-28T05:07:54;1.90;;;0.53;;
11548;SDS011;61444;59.472;18.306;2022-12-28T05:10:07;1.23;;;0.50;;
11548;SDS011;61444;59.472;18.306;2022-12-28T05:12:15;0.97;;;0.40;;
11548;SDS011;61444;59.472;18.306;2022-12-28T05:14:24;0.90;;;0.40;;
11548;SDS011;61444;59.472;18.306;2022-12-28T05:16:40;0.70;;;0.50;;
11548;SDS011;61444;59.472;18.306;2022-12-28T05:18:49;0.80;;;0.60;;
11548;SDS011;61444;59.472;18.306;2022-12-28T05:20:59;0.80;;;0.50;;
11548;SDS011;61444;59.472;18.306;2022-12-28T05:23:09;3.23;;;0.50;;
11548;SDS011;61444;59.472;18.306;2022-12-28T05:25:17;1.70;;;0.53;;
11548;SDS011;61444;59.472;18.306;2022-12-28T05:27:26;0.80;;;0.40;;
11548;SDS011;61444;59.472;18.306;2022-12-28T05:29:35;2.80;;;0.43;;
11548;SDS011;61444;59.472;18.306;2022-12-28T05:31:44;0.97;;;0.40;;
11548;SDS011;61444;59.472;18.306;2022-12-28T05:33:52;2.20;;;0.50;;
11548;SDS011;61444;59.472;18.306;2022-12-28T05:36:04;1.03;;;0.37;;
11548;SDS011;61444;59.472;18.306;2022-12-28T05:38:14;2.77;;;0.50;;
11548;SDS011;61444;59.472;18.306;2022-12-28T05:40:22;2.93;;;0.50;;
11548;SDS011;61444;59.472;18.306;2022-12-28T05:42:31;0.87;;;0.40;;
11548;SDS011;61444;59.472;18.306;2022-12-28T05:44:42;2.20;;;0.50;;
11548;SDS011;61444;59.472;18.306;2022-12-28T05:46:50;1.43;;;0.40;;
11548;SDS011;61444;59.472;18.306;2022-12-28T05:48:59;2.23;;;0.40;;
11548;SDS011;61444;59.472;18.306;2022-12-28T05:51:11;2.03;;;0.50;;
11548;SDS011;61444;59.472;18.306;2022-12-28T05:53:21;3.67;;;0.53;;
11548;SDS011;61444;59.472;18.306;2022-12-28T05:55:30;0.60;;;0.50;;
11548;SDS011;61444;59.472;18.306;2022-12-28T05:57:39;2.37;;;0.40;;
11548;SDS011;61444;59.472;18.306;2022-12-28T05:59:47;1.70;;;0.40;;
11548;SDS011;61444;59.472;18.306;2022-12-28T06:01:56;0.97;;;0.50;;
11548;SDS011;61444;59.472;18.306;2022-12-28T06:04:06;2.17;;;0.70;;
11548;SDS011;61444;59.472;18.306;2022-12-28T06:06:20;2.03;;;0.60;;
11548;SDS011;61444;59.472;18.306;2022-12-28T06:08:29;0.93;;;0.50;;
11548;SDS011;61444;59.472;18.306;2022-12-28T06:10:38;0.60;;;0.47;;
11548;SDS011;61444;59.472;18.306;2022-12-28T06:12:47;2.40;;;0.60;;
11548;SDS011;61444;59.472;18.306;2022-12-28T06:14:56;2.33;;;0.60;;
11548;SDS011;61444;59.472;18.306;2022-12-28T06:17:05;0.83;;;0.50;;
11548;SDS011;61444;59.472;18.306;2022-12-28T06:19:13;0.73;;;0.47;;
11548;SDS011;61444;59.472;18.306;2022-12-28T06:21:25;0.73;;;0.37;;
11548;SDS011;61444;59.472;18.306;2022-12-28T06:23:35;0.90;;;0.57;;
11548;SDS011;61444;59.472;18.306;2022-12-28T06:25:44;2.57;;;1.33;;
11548;SDS011;61444;59.472;18.306;2022-12-28T06:27:53;4.87;;;0.97;;
11548;SDS011;61444;59.472;18.306;2022-12-28T06:30:01;1.20;;;0.80;;
11548;SDS011;61444;59.472;18.306;2022-12-28T06:32:10;3.00;;;1.27;;
11548;SDS011;61444;59.472;18.306;2022-12-28T06:34:19;2.27;;;1.10;;
11548;SDS011;61444;59.472;18.306;2022-12-28T06:36:30;2.90;;;0.80;;
11548;SDS011;61444;59.472;18.306;2022-12-28T06:38:40;2.33;;;1.20;;
11548;SDS011;61444;59.472;18.306;2022-12-28T06:40:49;5.10;;;1.37;;
11548;SDS011;61444;59.472;18.306;2022-12-28T06:43:17;2.50;;;1.00;;
11548;SDS011;61444;59.472;18.306;2022-12-28T06:45:25;2.83;;;1.20;;
11548;SDS011;61444;59.472;18.306;2022-12-28T06:47:34;1.47;;;0.73;;
11548;SDS011;61444;59.472;18.306;2022-12-28T06:49:43;1.20;;;1.07;;
11548;SDS011;61444;59.472;18.306;2022-12-28T06:51:53;1.23;;;0.80;;
11548;SDS011;61444;59.472;18.306;2022-12-28T06:54:02;3.27;;;0.80;;
11548;SDS011;61444;59.472;18.306;2022-12-28T06:56:12;1.30;;;0.53;;
11548;SDS011;61444;59.472;18.306;2022-12-28T06:58:22;1.90;;;0.83;;
11548;SDS011;61444;59.472;18.306;2022-12-28T07:00:31;0.90;;;0.40;;
11548;SDS011;61444;59.472;18.306;2022-12-28T07:02:40;0.97;;;0.50;;
11548;SDS011;61444;59.472;18.306;2022-12-28T07:04:49;3.33;;;0.60;;
11548;SDS011;61444;59.472;18.306;2022-12-28T07:06:59;2.97;;;0.70;;
11548;SDS011;61444;59.472;18.306;2022-12-28T07:09:09;0.87;;;0.50;;
11548;SDS011;61444;59.472;18.306;2022-12-28T07:11:20;1.33;;;0.40;;
11548;SDS011;61444;59.472;18.306;2022-12-28T07:13:29;0.77;;;0.40;;
11548;SDS011;61444;59.472;18.306;2022-12-28T07:15:38;1.50;;;0.77;;
11548;SDS011;61444;59.472;18.306;2022-12-28T07:17:47;4.03;;;0.90;;
11548;SDS011;61444;59.472;18.306;2022-12-28T07:19:55;1.37;;;0.80;;
11548;SDS011;61444;59.472;18.306;2022-12-28T07:22:06;0.53;;;0.50;;
11548;SDS011;61444;59.472;18.306;2022-12-28T07:24:15;1.20;;;0.70;;
11548;SDS011;61444;59.472;18.306;2022-12-28T07:26:24;4.00;;;0.67;;
11548;SDS011;61444;59.472;18.306;2022-12-28T07:28:35;0.97;;;0.60;;
11548;SDS011;61444;59.472;18.306;2022-12-28T07:30:44;3.13;;;0.60;;
11548;SDS011;61444;59.472;18.306;2022-12-28T07:32:53;3.57;;;1.00;;
11548;SDS011;61444;59.472;18.306;2022-12-28T07:35:02;1.10;;;0.60;;
11548;SDS011;61444;59.472;18.306;2022-12-28T07:37:13;2.50;;;0.60;;
11548;SDS011;61444;59.472;18.306;2022-12-28T07:39:22;1.57;;;0.40;;
11548;SDS011;61444;59.472;18.306;2022-12-28T07:41:31;0.90;;;0.50;;
11548;SDS011;61444;59.472;18.306;2022-12-28T07:43:41;2.30;;;0.63;;
11548;SDS011;61444;59.472;18.306;2022-12-28T07:45:57;1.50;;;1.20;;
11548;SDS011;61444;59.472;18.306;2022-12-28T07:48:07;3.50;;;1.63;;
11548;SDS011;61444;59.472;18.306;2022-12-28T07:50:16;3.03;;;1.70;;
11548;SDS011;61444;59.472;18.306;2022-12-28T07:52:28;4.23;;;2.23;;
11548;SDS011;61444;59.472;18.306;2022-12-28T07:54:37;2.77;;;1.93;;
11548;SDS011;61444;59.472;18.306;2022-12-28T07:56:46;11.27;;;8.80;;
11548;SDS011;61444;59.472;18.306;2022-12-28T07:58:55;17.80;;;14.40;;
11548;SDS011;61444;59.472;18.306;2022-12-28T08:01:05;11.33;;;6.87;;
11548;SDS011;61444;59.472;18.306;2022-12-28T08:03:15;10.23;;;7.03;;
11548;SDS011;61444;59.472;18.306;2022-12-28T08:05:24;6.63;;;5.17;;
11548;SDS011;61444;59.472;18.306;2022-12-28T08:07:35;6.47;;;3.80;;
11548;SDS011;61444;59.472;18.306;2022-12-28T08:09:44;5.30;;;3.20;;
11548;SDS011;61444;59.472;18.306;2022-12-28T08:11:53;2.67;;;1.93;;
11548;SDS011;61444;59.472;18.306;2022-12-28T08:14:02;3.87;;;2.07;;
11548;SDS011;61444;59.472;18.306;2022-12-28T08:16:11;2.60;;;2.20;;
11548;SDS011;61444;59.472;18.306;2022-12-28T08:18:23;5.93;;;2.60;;
11548;SDS011;61444;59.472;18.306;2022-12-28T08:20:32;4.00;;;2.57;;
11548;SDS011;61444;59.472;18.306;2022-12-28T08:22:42;3.83;;;2.50;;
11548;SDS011;61444;59.472;18.306;2022-12-28T08:24:50;6.63;;;3.23;;
11548;SDS011;61444;59.472;18.306;2022-12-28T08:26:59;5.97;;;3.33;;
11548;SDS011;61444;59.472;18.306;2022-12-28T08:29:09;5.17;;;3.20;;
11548;SDS011;61444;59.472;18.306;2022-12-28T08:31:21;5.10;;;3.27;;
11548;SDS011;61444;59.472;18.306;2022-12-28T08:33:30;4.00;;;2.73;;
11548;SDS011;61444;59.472;18.306;2022-12-28T08:35:39;3.97;;;2.27;;
11548;SDS011;61444;59.472;18.306;2022-12-28T08:37:49;3.47;;;2.43;;
11548;SDS011;61444;59.472;18.306;2022-12-28T08:40:00;4.30;;;2.37;;
11548;SDS011;61444;59.472;18.306;2022-12-28T08:42:09;4.90;;;2.70;;
11548;SDS011;61444;59.472;18.306;2022-12-28T08:44:18;6.50;;;3.10;;
11548;SDS011;61444;59.472;18.306;2022-12-28T08:46:27;5.00;;;2.20;;
11548;SDS011;61444;59.472;18.306;2022-12-28T08:48:38;5.23;;;2.87;;
11548;SDS011;61444;59.472;18.306;2022-12-28T08:50:46;4.43;;;2.60;;
11548;SDS011;61444;59.472;18.306;2022-12-28T08:52:57;7.10;;;3.60;;
11548;SDS011;61444;59.472;18.306;2022-12-28T08:55:05;8.07;;;3.73;;
11548;SDS011;61444;59.472;18.306;2022-12-28T08:57:15;6.60;;;2.70;;
11548;SDS011;61444;59.472;18.306;2022-12-28T08:59:23;5.83;;;3.60;;
11548;SDS011;61444;59.472;18.306;2022-12-28T09:01:33;4.10;;;3.10;;
11548;SDS011;61444;59.472;18.306;2022-12-28T09:03:50;5.83;;;3.93;;
11548;SDS011;61444;59.472;18.306;2022-12-28T09:06:00;9.07;;;4.03;;
11548;SDS011;61444;59.472;18.306;2022-12-28T09:08:12;6.53;;;3.50;;
11548;SDS011;61444;59.472;18.306;2022-12-28T09:10:20;5.40;;;2.97;;
11548;SDS011;61444;59.472;18.306;2022-12-28T09:12:29;6.13;;;2.90;;
11548;SDS011;61444;59.472;18.306;2022-12-28T09:14:38;5.77;;;3.17;;
11548;SDS011;61444;59.472;18.306;2022-12-28T09:16:47;6.53;;;3.30;;
11548;SDS011;61444;59.472;18.306;2022-12-28T09:18:56;6.13;;;3.20;;
11548;SDS011;61444;59.472;18.306;2022-12-28T09:21:06;4.67;;;3.60;;
11548;SDS011;61444;59.472;18.306;2022-12-28T09:23:19;7.60;;;3.80;;
11548;SDS011;61444;59.472;18.306;2022-12-28T09:25:28;7.93;;;3.60;;
11548;SDS011;61444;59.472;18.306;2022-12-28T09:27:36;5.70;;;3.53;;
11548;SDS011;61444;59.472;18.306;2022-12-28T09:29:47;8.63;;;3.60;;
11548;SDS011;61444;59.472;18.306;2022-12-28T09:31:55;11.27;;;4.07;;
11548;SDS011;61444;59.472;18.306;2022-12-28T09:34:07;5.93;;;3.30;;
11548;SDS011;61444;59.472;18.306;2022-12-28T09:36:39;6.03;;;3.33;;
11548;SDS011;61444;59.472;18.306;2022-12-28T09:38:51;7.07;;;3.70;;
11548;SDS011;61444;59.472;18.306;2022-12-28T09:41:00;5.23;;;3.43;;
11548;SDS011;61444;59.472;18.306;2022-12-28T09:43:15;6.27;;;3.50;;
11548;SDS011;61444;59.472;18.306;2022-12-28T09:45:25;9.10;;;3.60;;
11548;SDS011;61444;59.472;18.306;2022-12-28T09:47:35;6.23;;;4.13;;
11548;SDS011;61444;59.472;18.306;2022-12-28T09:52:30;8.40;;;3.77;;
11548;SDS011;61444;59.472;18.306;2022-12-28T09:54:44;7.83;;;4.93;;
11548;SDS011;61444;59.472;18.306;2022-12-28T09:56:53;9.07;;;5.10;;
11548;SDS011;61444;59.472;18.306;2022-12-28T09:59:02;12.23;;;5.37;;
11548;SDS011;61444;59.472;18.306;2022-12-28T10:01:13;12.33;;;5.93;;
11548;SDS011;61444;59.472;18.306;2022-12-28T10:03:26;9.17;;;5.80;;
11548;SDS011;61444;59.472;18.306;2022-12-28T10:05:39;12.83;;;5.80;;
11548;SDS011;61444;59.472;18.306;2022-12-28T10:07:49;11.93;;;7.37;;
11548;SDS011;61444;59.472;18.306;2022-12-28T10:10:01;9.67;;;5.27;;
11548;SDS011;61444;59.472;18.306;2022-12-28T10:12:12;10.57;;;5.40;;
11548;SDS011;61444;59.472;18.306;2022-12-28T10:14:24;9.17;;;5.40;;
11548;SDS011;61444;59.472;18.306;2022-12-28T10:16:35;8.80;;;5.00;;
11548;SDS011;61444;59.472;18.306;2022-12-28T10:18:53;10.90;;;6.13;;
11548;SDS011;61444;59.472;18.306;2022-12-28T10:21:03;13.40;;;7.37;;
11548;SDS011;61444;59.472;18.306;2022-12-28T10:23:13;12.13;;;5.90;;
11548;SDS011;61444;59.472;18.306;2022-12-28T10:25:27;8.97;;;5.13;;
11548;SDS011;61444;59.472;18.306;2022-12-28T10:27:36;11.30;;;5.23;;
11548;SDS011;61444;59.472;18.306;2022-12-28T10:29:45;9.90;;;5.43;;
11548;SDS011;61444;59.472;18.306;2022-12-28T10:31:56;7.73;;;5.27;;
11548;SDS011;61444;59.472;18.306;2022-12-28T10:34:10;9.50;;;5.70;;
11548;SDS011;61444;59.472;18.306;2022-12-28T10:36:23;7.47;;;5.70;;
11548;SDS011;61444;59.472;18.306;2022-12-28T10:38:37;9.90;;;5.67;;
11548;SDS011;61444;59.472;18.306;2022-12-28T10:40:55;12.17;;;6.03;;
11548;SDS011;61444;59.472;18.306;2022-12-28T10:43:15;13.50;;;5.70;;
11548;SDS011;61444;59.472;18.306;2022-12-28T10:45:30;9.63;;;4.63;;
11548;SDS011;61444;59.472;18.306;2022-12-28T10:47:45;10.87;;;4.80;;
11548;SDS011;61444;59.472;18.306;2022-12-28T10:49:58;9.10;;;5.00;;
11548;SDS011;61444;59.472;18.306;2022-12-28T10:52:26;10.43;;;5.33;;
11548;SDS011;61444;59.472;18.306;2022-12-28T10:54:36;12.70;;;6.03;;
11548;SDS011;61444;59.472;18.306;2022-12-28T10:56:47;10.13;;;5.67;;
11548;SDS011;61444;59.472;18.306;2022-12-28T11:01:26;14.80;;;7.00;;
11548;SDS011;61444;59.472;18.306;2022-12-28T11:03:36;12.67;;;7.23;;
11548;SDS011;61444;59.472;18.306;2022-12-28T11:05:46;9.93;;;6.10;;
11548;SDS011;61444;59.472;18.306;2022-12-28T11:08:03;14.47;;;6.47;;
11548;SDS011;61444;59.472;18.306;2022-12-28T11:10:14;14.03;;;6.00;;
11548;SDS011;61444;59.472;18.306;2022-12-28T11:12:31;9.97;;;6.00;;
11548;SDS011;61444;59.472;18.306;2022-12-28T11:14:42;11.30;;;5.40;;
11548;SDS011;61444;59.472;18.306;2022-12-28T11:16:50;9.87;;;5.47;;
11548;SDS011;61444;59.472;18.306;2022-12-28T11:18:59;11.93;;;5.33;;
11548;SDS011;61444;59.472;18.306;2022-12-28T11:21:09;10.63;;;5.53;;
11548;SDS011;61444;59.472;18.306;2022-12-28T11:23:22;11.50;;;6.63;;
11548;SDS011;61444;59.472;18.306;2022-12-28T11:25:37;10.80;;;6.43;;
11548;SDS011;61444;59.472;18.306;2022-12-28T11:27:49;13.17;;;7.87;;
11548;SDS011;61444;59.472;18.306;2022-12-28T11:29:58;13.47;;;7.73;;
11548;SDS011;61444;59.472;18.306;2022-12-28T11:32:07;12.10;;;7.03;;
11548;SDS011;61444;59.472;18.306;2022-12-28T11:34:22;12.50;;;7.13;;
11548;SDS011;61444;59.472;18.306;2022-12-28T11:36:36;13.37;;;7.50;;
11548;SDS011;61444;59.472;18.306;2022-12-28T11:38:47;11.13;;;6.70;;
11548;SDS011;61444;59.472;18.306;2022-12-28T11:41:00;11.73;;;6.37;;
11548;SDS011;61444;59.472;18.306;2022-12-28T11:43:10;13.77;;;6.77;;
11548;SDS011;61444;59.472;18.306;2022-12-28T11:45:52;12.33;;;6.70;;
11548;SDS011;61444;59.472;18.306;2022-12-28T11:50:52;13.10;;;7.50;;
11548;SDS011;61444;59.472;18.306;2022-12-28T11:53:02;10.90;;;7.37;;
11548;SDS011;61444;59.472;18.306;2022-12-28T11:55:36;9.80;;;7.43;;
11548;SDS011;61444;59.472;18.306;2022-12-28T12:00:49;14.30;;;6.67;;
11548;SDS011;61444;59.472;18.306;2022-12-28T12:02:58;14.23;;;7.93;;
11548;SDS011;61444;59.472;18.306;2022-12-28T12:07:56;11.27;;;6.40;;
11548;SDS011;61444;59.472;18.306;2022-12-28T12:12:48;12.27;;;6.33;;
11548;SDS011;61444;59.472;18.306;2022-12-28T12:15:00;10.57;;;6.10;;
11548;SDS011;61444;59.472;18.306;2022-12-28T12:17:19;12.80;;;6.17;;
11548;SDS011;61444;59.472;18.306;2022-12-28T12:19:35;9.93;;;5.67;;
11548;SDS011;61444;59.472;18.306;2022-12-28T12:21:46;11.37;;;7.20;;
11548;SDS011;61444;59.472;18.306;2022-12-28T12:24:12;10.57;;;7.23;;
11548;SDS011;61444;59.472;18.306;2022-12-28T12:26:33;12.50;;;6.50;;
11548;SDS011;61444;59.472;18.306;2022-12-28T12:28:46;9.20;;;6.10;;
11548;SDS011;61444;59.472;18.306;2022-12-28T12:30:58;8.60;;;6.17;;
11548;SDS011;61444;59.472;18.306;2022-12-28T12:33:10;9.47;;;5.97;;
11548;SDS011;61444;59.472;18.306;2022-12-28T12:35:22;12.47;;;6.07;;
11548;SDS011;61444;59.472;18.306;2022-12-28T12:37:37;9.20;;;5.67;;
11548;SDS011;61444;59.472;18.306;2022-12-28T12:39:58;9.97;;;6.17;;
11548;SDS011;61444;59.472;18.306;2022-12-28T12:42:22;11.60;;;5.63;;
11548;SDS011;61444;59.472;18.306;2022-12-28T12:44:38;10.87;;;5.80;;
11548;SDS011;61444;59.472;18.306;2022-12-28T12:47:04;10.37;;;5.67;;
11548;SDS011;61444;59.472;18.306;2022-12-28T12:49:53;9.63;;;5.83;;
11548;SDS011;61444;59.472;18.306;2022-12-28T12:52:23;10.10;;;5.37;;
11548;SDS011;61444;59.472;18.306;2022-12-28T12:54:40;10.90;;;5.37;;
11548;SDS011;61444;59.472;18.306;2022-12-28T12:57:01;11.43;;;6.30;;
11548;SDS011;61444;59.472;18.306;2022-12-28T12:59:25;11.00;;;5.70;;
11548;SDS011;61444;59.472;18.306;2022-12-28T13:01:42;9.97;;;5.67;;
11548;SDS011;61444;59.472;18.306;2022-12-28T13:04:05;9.73;;;5.73;;
11548;SDS011;61444;59.472;18.306;2022-12-28T13:06:16;9.67;;;5.33;;
11548;SDS011;61444;59.472;18.306;2022-12-28T13:08:29;13.43;;;6.80;;
11548;SDS011;61444;59.472;18.306;2022-12-28T13:10:43;10.83;;;6.40;;
11548;SDS011;61444;59.472;18.306;2022-12-28T13:12:51;11.83;;;6.30;;
11548;SDS011;61444;59.472;18.306;2022-12-28T13:15:05;10.50;;;5.97;;
11548;SDS011;61444;59.472;18.306;2022-12-28T13:17:19;11.87;;;6.80;;
11548;SDS011;61444;59.472;18.306;2022-12-28T13:19:30;14.93;;;8.10;;
11548;SDS011;61444;59.472;18.306;2022-12-28T13:21:40;17.40;;;9.13;;
11548;SDS011;61444;59.472;18.306;2022-12-28T13:23:50;20.37;;;9.77;;